createdAt,value
2018-01-14T00:00:19.989Z,62.20
2018-01-14T00:02:49.049Z,62.00
2018-01-14T00:05:17.531Z,62.00
2018-01-14T00:07:45.802Z,62.10
2018-01-14T00:10:14.061Z,62.00
2018-01-14T00:12:42.325Z,62.00
2018-01-14T00:15:10.588Z,62.20
2018-01-14T00:17:38.900Z,62.50
2018-01-14T00:20:07.164Z,62.40
2018-01-14T00:22:35.523Z,62.30
2018-01-14T00:25:03.808Z,62.60
2018-01-14T00:27:32.076Z,62.10
2018-01-14T00:30:00.365Z,62.20
2018-01-14T00:32:28.645Z,62.40
2018-01-14T00:34:56.930Z,62.50
2018-01-14T00:37:25.178Z,62.70
2018-01-14T00:39:53.429Z,62.70
2018-01-14T00:42:21.693Z,62.90
2018-01-14T00:44:50.724Z,63.00
2018-01-14T00:47:18.989Z,62.90
2018-01-14T00:49:47.249Z,62.80
2018-01-14T00:52:15.497Z,62.90
2018-01-14T00:54:44.630Z,62.90
2018-01-14T00:57:12.869Z,62.90
2018-01-14T00:59:41.910Z,62.80
2018-01-14T01:02:10.322Z,62.70
2018-01-14T01:04:38.642Z,62.70
2018-01-14T01:07:06.901Z,62.80
2018-01-14T01:09:35.945Z,63.40
2018-01-14T01:12:04.213Z,63.40
2018-01-14T01:14:32.494Z,63.20
2018-01-14T01:17:00.800Z,63.10
2018-01-14T01:19:29.063Z,63.00
2018-01-14T01:21:58.916Z,63.00
2018-01-14T01:24:27.930Z,63.20
2018-01-14T01:26:56.182Z,63.20
2018-01-14T01:29:24.522Z,63.40
2018-01-14T01:31:52.797Z,63.40
2018-01-14T01:34:21.044Z,63.30
2018-01-14T01:36:49.487Z,63.10
2018-01-14T01:39:17.834Z,64.00
2018-01-14T01:41:46.164Z,63.20
2018-01-14T01:44:14.431Z,62.90
2018-01-14T01:46:42.694Z,62.80
2018-01-14T01:49:10.977Z,62.50
2018-01-14T01:51:39.257Z,62.70
2018-01-14T01:54:07.535Z,62.40
2018-01-14T01:56:35.831Z,62.20
2018-01-14T01:59:04.091Z,62.40
2018-01-14T02:01:32.363Z,62.40
2018-01-14T02:04:00.875Z,62.50
2018-01-14T02:06:29.189Z,63.00
2018-01-14T02:08:57.471Z,63.50
2018-01-14T02:11:25.739Z,63.70
2018-01-14T02:13:54.950Z,63.70
2018-01-14T02:16:23.195Z,63.70
2018-01-14T02:18:52.217Z,63.60
2018-01-14T02:21:20.491Z,63.60
2018-01-14T02:23:48.768Z,63.50
2018-01-14T02:26:17.030Z,63.00
2018-01-14T02:28:45.368Z,63.10
2018-01-14T02:31:13.686Z,62.90
2018-01-14T02:33:41.977Z,62.80
2018-01-14T02:36:10.246Z,62.90
2018-01-14T02:38:38.516Z,63.10
2018-01-14T02:41:06.775Z,63.00
2018-01-14T02:43:35.821Z,62.80
2018-01-14T02:46:04.190Z,62.70
2018-01-14T02:48:32.454Z,62.90
2018-01-14T02:51:00.719Z,63.10
2018-01-14T02:53:28.974Z,63.10
2018-01-14T02:55:57.227Z,63.10
2018-01-14T02:58:26.254Z,63.10
2018-01-14T03:00:54.523Z,63.10
2018-01-14T03:03:22.861Z,63.00
2018-01-14T03:05:51.127Z,63.40
2018-01-14T03:08:19.421Z,63.80
2018-01-14T03:10:48.431Z,64.50
2018-01-14T03:13:17.463Z,63.80
2018-01-14T03:15:45.727Z,63.80
2018-01-14T03:18:14.011Z,64.20
2018-01-14T03:20:42.267Z,64.10
2018-01-14T03:23:10.540Z,64.00
2018-01-14T03:25:38.794Z,63.90
2018-01-14T03:28:07.845Z,63.30
2018-01-14T03:30:36.095Z,63.20
2018-01-14T03:33:04.337Z,62.70
2018-01-14T03:35:32.623Z,63.00
2018-01-14T03:38:00.913Z,62.70
2018-01-14T03:40:29.161Z,62.70
2018-01-14T03:42:57.431Z,62.70
2018-01-14T03:45:26.495Z,62.80
2018-01-14T03:47:54.720Z,62.80
2018-01-14T03:50:23.024Z,62.80
2018-01-14T03:52:51.290Z,63.10
2018-01-14T03:55:19.602Z,63.30
2018-01-14T03:57:47.880Z,63.40
2018-01-14T04:00:16.166Z,63.40
2018-01-14T04:02:45.219Z,63.60
2018-01-14T04:05:13.475Z,63.60
2018-01-14T04:07:41.749Z,63.70
2018-01-14T04:10:09.991Z,64.00
2018-01-14T04:12:39.001Z,63.80
2018-01-14T04:15:07.300Z,63.80
2018-01-14T04:17:35.553Z,63.60
2018-01-14T04:20:03.990Z,63.90
2018-01-14T04:22:32.247Z,63.70
2018-01-14T04:25:00.516Z,63.90
2018-01-14T04:27:28.800Z,63.60
2018-01-14T04:29:57.090Z,63.70
2018-01-14T04:32:25.336Z,64.00
2018-01-14T04:34:53.679Z,63.90
2018-01-14T04:37:22.106Z,64.10
2018-01-14T04:39:50.350Z,64.00
2018-01-14T04:42:18.626Z,64.20
2018-01-14T04:44:46.902Z,64.20
2018-01-14T04:47:15.288Z,63.60
2018-01-14T04:49:43.572Z,63.50
2018-01-14T04:52:11.805Z,64.00
2018-01-14T04:54:40.127Z,63.80
2018-01-14T04:57:08.550Z,64.30
2018-01-14T04:59:36.791Z,64.30
2018-01-14T05:02:05.057Z,64.10
2018-01-14T05:04:34.818Z,63.80
2018-01-14T05:07:03.081Z,63.70
2018-01-14T05:09:31.402Z,64.00
2018-01-14T05:11:59.660Z,64.00
2018-01-14T05:14:27.959Z,64.00
2018-01-14T05:16:56.239Z,64.20
2018-01-14T05:19:24.487Z,64.50
2018-01-14T05:21:52.771Z,64.50
2018-01-14T05:24:21.114Z,64.50
2018-01-14T05:26:49.367Z,64.40
2018-01-14T05:29:18.386Z,64.60
2018-01-14T05:31:46.659Z,64.50
2018-01-14T05:34:14.904Z,64.80
2018-01-14T05:36:43.952Z,64.30
2018-01-14T05:39:12.260Z,64.90
2018-01-14T05:41:41.304Z,64.90
2018-01-14T05:44:09.600Z,64.60
2018-01-14T05:46:37.926Z,64.90
2018-01-14T05:49:06.957Z,64.80
2018-01-14T05:51:35.215Z,64.70
2018-01-14T05:54:03.665Z,65.10
2018-01-14T05:56:31.908Z,64.70
2018-01-14T05:59:00.199Z,64.70
2018-01-14T06:01:28.445Z,64.30
2018-01-14T06:03:56.727Z,65.30
2018-01-14T06:06:24.984Z,65.00
2018-01-14T06:08:53.291Z,65.30
2018-01-14T06:11:21.669Z,65.00
2018-01-14T06:13:49.890Z,65.00
2018-01-14T06:16:18.156Z,64.70
2018-01-14T06:18:47.179Z,64.60
2018-01-14T06:21:15.673Z,64.60
2018-01-14T06:23:46.570Z,64.70
2018-01-14T06:26:14.894Z,64.60
2018-01-14T06:28:43.138Z,64.60
2018-01-14T06:31:11.420Z,64.20
2018-01-14T06:33:39.663Z,64.30
2018-01-14T06:36:08.053Z,64.30
2018-01-14T06:38:36.314Z,64.50
2018-01-14T06:41:04.616Z,64.60
2018-01-14T06:43:33.013Z,64.40
2018-01-14T06:46:02.508Z,64.60
2018-01-14T06:48:30.791Z,64.30
2018-01-14T06:50:59.060Z,64.30
2018-01-14T06:53:27.510Z,64.90
2018-01-14T06:55:55.816Z,64.60
2018-01-14T06:58:24.079Z,64.70
2018-01-14T07:00:52.368Z,64.70
2018-01-14T07:03:20.651Z,64.60
2018-01-14T07:05:48.895Z,64.40
2018-01-14T07:08:17.201Z,64.60
2018-01-14T07:10:45.531Z,64.30
2018-01-14T07:13:13.858Z,64.60
2018-01-14T07:15:42.120Z,64.70
2018-01-14T07:18:10.410Z,64.60
2018-01-14T07:20:38.683Z,64.50
2018-01-14T07:23:06.959Z,64.90
2018-01-14T07:25:35.231Z,64.70
2018-01-14T07:28:03.544Z,64.70
2018-01-14T07:30:32.656Z,64.70
2018-01-14T07:33:00.903Z,64.60
2018-01-14T07:35:29.287Z,64.30
2018-01-14T07:37:58.301Z,64.70
2018-01-14T07:40:26.570Z,64.50
2018-01-14T07:42:54.950Z,64.50
2018-01-14T07:45:23.358Z,64.40
2018-01-14T07:47:51.607Z,64.60
2018-01-14T07:50:19.910Z,64.60
2018-01-14T07:52:48.177Z,64.30
2018-01-14T07:55:16.433Z,64.50
2018-01-14T07:57:44.754Z,64.70
2018-01-14T08:00:13.024Z,64.60
2018-01-14T08:02:41.362Z,64.80
2018-01-14T08:05:09.633Z,64.50
2018-01-14T08:07:37.893Z,64.50
2018-01-14T08:10:07.075Z,64.60
2018-01-14T08:12:36.311Z,64.40
2018-01-14T08:15:04.545Z,64.40
2018-01-14T08:17:33.723Z,64.40
2018-01-14T08:20:02.030Z,64.40
2018-01-14T08:22:31.051Z,64.50
2018-01-14T08:24:59.498Z,64.50
2018-01-14T08:27:28.646Z,64.20
2018-01-14T08:29:57.189Z,64.20
2018-01-14T08:32:26.210Z,64.30
2018-01-14T08:34:54.475Z,64.20
2018-01-14T08:37:22.858Z,64.10
2018-01-14T08:39:51.115Z,64.00
2018-01-14T08:42:19.424Z,64.20
2018-01-14T08:44:47.730Z,63.90
2018-01-14T08:47:15.992Z,63.70
2018-01-14T08:49:45.166Z,64.30
2018-01-14T08:52:13.591Z,64.20
2018-01-14T08:54:42.633Z,63.50
2018-01-14T08:57:10.913Z,63.50
2018-01-14T08:59:39.235Z,63.40
2018-01-14T09:02:08.434Z,63.40
2018-01-14T09:04:37.668Z,63.90
2018-01-14T09:07:05.931Z,63.80
2018-01-14T09:09:34.173Z,64.20
2018-01-14T09:12:03.633Z,63.70
2018-01-14T09:14:31.870Z,63.70
2018-01-14T09:17:00.309Z,63.00
2018-01-14T09:19:28.591Z,63.00
2018-01-14T09:21:57.751Z,63.20
2018-01-14T09:24:26.027Z,63.20
2018-01-14T09:26:54.332Z,62.90
2018-01-14T09:29:22.638Z,63.00
2018-01-14T09:31:50.895Z,63.10
2018-01-14T09:34:20.002Z,63.40
2018-01-14T09:36:49.023Z,63.20
2018-01-14T09:39:17.337Z,63.20
2018-01-14T09:41:45.579Z,63.30
2018-01-14T09:44:13.882Z,63.30
2018-01-14T09:46:42.142Z,63.20
2018-01-14T09:49:10.418Z,63.40
2018-01-14T09:51:38.692Z,63.50
2018-01-14T09:54:06.939Z,63.70
2018-01-14T09:56:35.182Z,63.50
2018-01-14T09:59:03.472Z,63.40
2018-01-14T10:01:32.532Z,63.00
2018-01-14T10:04:00.835Z,62.80
2018-01-14T10:06:29.104Z,63.00
2018-01-14T10:08:58.152Z,62.70
2018-01-14T10:11:26.433Z,62.60
2018-01-14T10:13:54.751Z,62.60
2018-01-14T10:16:23.781Z,62.60
2018-01-14T10:18:52.041Z,62.50
2018-01-14T10:21:20.298Z,62.60
2018-01-14T10:23:48.611Z,62.20
2018-01-14T10:26:16.986Z,62.20
2018-01-14T10:28:45.238Z,62.20
2018-01-14T10:31:13.515Z,62.10
2018-01-14T10:33:42.055Z,62.10
2018-01-14T10:36:10.319Z,62.20
2018-01-14T10:38:38.615Z,61.70
2018-01-14T10:41:06.859Z,61.60
2018-01-14T10:43:35.179Z,61.40
2018-01-14T10:46:04.308Z,60.90
2018-01-14T10:48:32.582Z,61.10
2018-01-14T10:51:00.970Z,61.60
2018-01-14T10:53:29.245Z,61.90
2018-01-14T10:55:57.541Z,61.70
2018-01-14T10:58:25.811Z,61.70
2018-01-14T11:00:54.058Z,61.40
2018-01-14T11:03:22.334Z,61.40
2018-01-14T11:05:50.628Z,61.00
2018-01-14T11:08:18.947Z,61.30
2018-01-14T11:10:48.013Z,60.40
2018-01-14T11:13:16.275Z,60.40
2018-01-14T11:15:44.560Z,60.40
2018-01-14T11:18:12.884Z,60.70
2018-01-14T11:20:41.145Z,60.00
2018-01-14T11:23:10.194Z,60.00
2018-01-14T11:25:38.463Z,60.00
2018-01-14T11:28:06.747Z,60.60
2018-01-14T11:30:35.016Z,60.50
2018-01-14T11:33:03.378Z,59.90
2018-01-14T11:35:31.658Z,60.30
2018-01-14T11:37:59.918Z,60.40
2018-01-14T11:40:28.166Z,59.70
2018-01-14T11:42:56.435Z,59.70
2018-01-14T11:45:25.531Z,59.70
2018-01-14T11:47:54.613Z,60.00
2018-01-14T11:50:22.875Z,59.90
2018-01-14T11:52:51.198Z,59.60
2018-01-14T11:55:19.573Z,60.00
2018-01-14T11:57:47.827Z,59.30
2018-01-14T12:00:16.868Z,59.40
2018-01-14T12:02:45.191Z,59.30
2018-01-14T12:05:14.233Z,59.40
2018-01-14T12:07:42.526Z,59.30
2018-01-14T12:10:10.823Z,59.40
2018-01-14T12:12:39.104Z,59.40
2018-01-14T12:15:08.165Z,59.40
2018-01-14T12:17:36.431Z,59.30
2018-01-14T12:20:04.848Z,59.80
2018-01-14T12:22:33.885Z,60.20
2018-01-14T12:25:02.180Z,60.10
2018-01-14T12:27:32.011Z,59.50
2018-01-14T12:30:00.224Z,59.40
2018-01-14T12:32:40.657Z,59.00
2018-01-14T12:35:08.874Z,59.20
2018-01-14T12:37:37.170Z,59.30
2018-01-14T12:40:05.453Z,59.40
2018-01-14T12:42:33.706Z,59.70
2018-01-14T12:45:02.078Z,60.10
2018-01-14T12:47:30.385Z,60.20
2018-01-14T12:49:58.750Z,60.70
2018-01-14T12:52:27.011Z,60.00
2018-01-14T12:54:55.269Z,59.80
2018-01-14T12:57:23.554Z,59.80
2018-01-14T12:59:52.005Z,59.80
2018-01-14T13:02:20.249Z,59.30
2018-01-14T13:04:48.511Z,59.40
2018-01-14T13:07:16.809Z,59.40
2018-01-14T13:09:45.115Z,59.60
2018-01-14T13:12:13.430Z,59.80
2018-01-14T13:14:41.783Z,59.50
2018-01-14T13:17:10.077Z,59.60
2018-01-14T13:19:38.349Z,59.50
2018-01-14T13:22:06.732Z,59.70
2018-01-14T13:24:35.115Z,59.30
2018-01-14T13:27:03.421Z,59.60
2018-01-14T13:29:33.173Z,59.40
2018-01-14T13:32:01.444Z,59.40
2018-01-14T13:34:29.726Z,59.90
2018-01-14T13:36:58.016Z,59.60
2018-01-14T13:39:26.328Z,59.70
2018-01-14T13:41:54.617Z,59.90
2018-01-14T13:44:23.656Z,59.40
2018-01-14T13:46:51.926Z,59.40
2018-01-14T13:49:20.205Z,59.20
2018-01-14T13:51:48.515Z,59.50
2018-01-14T13:54:17.003Z,59.90
2018-01-14T13:56:45.345Z,59.60
2018-01-14T13:59:13.615Z,60.10
2018-01-14T14:01:42.032Z,60.80
2018-01-14T14:04:10.292Z,60.50
2018-01-14T14:06:39.434Z,61.00
2018-01-14T14:09:08.456Z,61.40
2018-01-14T14:11:36.722Z,61.40
2018-01-14T14:14:04.998Z,61.70
2018-01-14T14:16:33.296Z,61.70
2018-01-14T14:19:01.604Z,61.50
2018-01-14T14:21:30.633Z,61.50
2018-01-14T14:23:58.936Z,61.50
2018-01-14T14:26:27.199Z,61.90
2018-01-14T14:28:55.526Z,61.90
2018-01-14T14:31:24.567Z,62.30
2018-01-14T14:33:52.829Z,62.30
2018-01-14T14:36:21.122Z,62.50
2018-01-14T14:38:49.379Z,62.80
2018-01-14T14:41:17.651Z,62.50
2018-01-14T14:43:45.919Z,62.20
2018-01-14T14:46:14.214Z,61.80
2018-01-14T14:48:42.519Z,62.10
2018-01-14T14:51:10.829Z,61.90
2018-01-14T14:53:39.144Z,62.20
2018-01-14T14:56:07.403Z,62.00
2018-01-14T14:58:35.721Z,62.00
2018-01-14T15:01:03.954Z,62.30
2018-01-14T15:03:32.223Z,62.30
2018-01-14T15:06:00.555Z,62.80
2018-01-14T15:08:28.801Z,62.80
2018-01-14T15:10:57.091Z,62.70
2018-01-14T15:13:25.466Z,63.00
2018-01-14T15:15:53.745Z,63.10
2018-01-14T15:18:22.028Z,63.40
2018-01-14T15:20:50.288Z,63.80
2018-01-14T15:23:18.567Z,64.50
2018-01-14T15:25:46.818Z,65.20
2018-01-14T15:28:15.112Z,65.70
2018-01-14T15:30:44.449Z,65.90
2018-01-14T15:33:13.539Z,66.50
2018-01-14T15:35:41.847Z,66.40
2018-01-14T15:38:10.193Z,66.70
2018-01-14T15:40:39.252Z,67.20
2018-01-14T15:43:07.522Z,67.10
2018-01-14T15:45:35.782Z,67.50
2018-01-14T15:48:04.067Z,67.80
2018-01-14T15:50:32.343Z,68.00
2018-01-14T15:53:00.615Z,68.20
2018-01-14T15:55:28.895Z,68.30
2018-01-14T15:57:57.234Z,68.30
2018-01-14T16:00:25.514Z,68.30
2018-01-14T16:02:53.839Z,68.30
2018-01-14T16:05:22.115Z,68.20
2018-01-14T16:07:50.404Z,67.90
2018-01-14T16:10:18.687Z,67.20
2018-01-14T16:12:47.094Z,67.30
2018-01-14T16:15:15.383Z,67.10
2018-01-14T16:17:43.662Z,67.30
2018-01-14T16:20:11.926Z,67.10
2018-01-14T16:22:40.202Z,67.10
2018-01-14T16:25:08.500Z,66.70
2018-01-14T16:27:36.763Z,66.50
2018-01-14T16:30:05.118Z,66.50
2018-01-14T16:32:33.565Z,66.50
2018-01-14T16:35:01.846Z,66.60
2018-01-14T16:37:30.887Z,66.50
2018-01-14T16:39:59.283Z,66.40
2018-01-14T16:42:27.744Z,66.30
2018-01-14T16:44:56.016Z,66.50
2018-01-14T16:47:24.362Z,66.40
2018-01-14T16:49:53.551Z,66.30
2018-01-14T16:52:22.600Z,66.30
2018-01-14T16:54:50.857Z,66.30
2018-01-14T16:57:19.163Z,66.40
2018-01-14T16:59:47.443Z,66.30
2018-01-14T17:02:16.516Z,66.70
2018-01-14T17:04:44.817Z,66.60
2018-01-14T17:07:13.088Z,66.70
2018-01-14T17:09:41.338Z,66.80
2018-01-14T17:12:09.627Z,67.00
2018-01-14T17:14:37.876Z,67.10
2018-01-14T17:17:06.144Z,67.20
2018-01-14T17:19:34.485Z,67.60
2018-01-14T17:22:03.520Z,67.90
2018-01-14T17:24:31.801Z,68.00
2018-01-14T17:27:00.104Z,68.20
2018-01-14T17:29:28.404Z,68.20
2018-01-14T17:31:57.478Z,68.70
2018-01-14T17:34:25.741Z,68.70
2018-01-14T17:36:55.854Z,68.90
2018-01-14T17:39:24.180Z,68.90
2018-01-14T17:41:52.477Z,68.90
2018-01-14T17:44:20.790Z,69.00
2018-01-14T17:46:49.065Z,69.00
2018-01-14T17:49:17.362Z,69.30
2018-01-14T17:51:46.548Z,69.60
2018-01-14T17:54:15.644Z,69.60
2018-01-14T17:56:45.403Z,69.70
2018-01-14T17:59:14.116Z,69.60
2018-01-14T18:01:42.378Z,69.80
2018-01-14T18:04:10.698Z,69.90
2018-01-14T18:06:39.757Z,70.10
2018-01-14T18:09:08.012Z,70.10
2018-01-14T18:11:36.303Z,70.20
2018-01-14T18:14:04.611Z,70.40
2018-01-14T18:16:32.892Z,70.40
2018-01-14T18:19:01.906Z,70.70
2018-01-14T18:21:30.220Z,70.60
2018-01-14T18:23:58.494Z,70.80
2018-01-14T18:26:26.803Z,70.90
2018-01-14T18:28:56.597Z,71.10
2018-01-14T18:31:24.888Z,71.00
2018-01-14T18:33:53.917Z,71.20
2018-01-14T18:36:22.230Z,71.20
2018-01-14T18:38:50.504Z,71.30
2018-01-14T18:41:18.797Z,71.30
2018-01-14T18:43:47.086Z,71.30
2018-01-14T18:46:16.148Z,71.40
2018-01-14T18:48:44.557Z,71.40
2018-01-14T18:51:13.573Z,71.50
2018-01-14T18:53:41.861Z,71.40
2018-01-14T18:56:10.347Z,71.40
2018-01-14T18:58:38.646Z,71.40
2018-01-14T19:01:06.922Z,71.40
2018-01-14T19:03:35.246Z,71.40
2018-01-14T19:06:03.539Z,71.40
2018-01-14T19:08:31.952Z,71.40
2018-01-14T19:11:00.219Z,71.50
2018-01-14T19:13:28.503Z,71.50
2018-01-14T19:15:56.796Z,71.60
2018-01-14T19:18:25.052Z,71.70
2018-01-14T19:20:53.319Z,72.60
2018-01-14T19:23:21.590Z,71.80
2018-01-14T19:25:50.005Z,71.80
2018-01-14T19:28:18.318Z,71.80
2018-01-14T19:30:46.591Z,71.80
2018-01-14T19:33:14.867Z,71.80
2018-01-14T19:35:43.140Z,71.80
2018-01-14T19:38:11.442Z,71.80
2018-01-14T19:40:39.753Z,72.00
2018-01-14T19:43:08.036Z,72.00
2018-01-14T19:45:36.281Z,71.80
2018-01-14T19:48:04.583Z,71.80
2018-01-14T19:50:32.886Z,71.90
2018-01-14T19:53:01.891Z,72.10
2018-01-14T19:55:30.338Z,72.00
2018-01-14T19:57:59.418Z,72.30
2018-01-14T20:00:27.726Z,72.20
2018-01-14T20:02:56.764Z,72.30
2018-01-14T20:05:25.044Z,72.20
2018-01-14T20:07:53.304Z,72.30
2018-01-14T20:10:21.713Z,72.40
2018-01-14T20:12:50.168Z,72.60
2018-01-14T20:15:18.450Z,72.70
2018-01-14T20:17:46.691Z,72.20
2018-01-14T20:20:14.985Z,72.80
2018-01-14T20:22:43.271Z,72.80
2018-01-14T20:25:12.167Z,72.90
2018-01-14T20:27:40.466Z,73.10
2018-01-14T20:30:08.804Z,73.20
2018-01-14T20:32:37.166Z,73.50
2018-01-14T20:35:05.735Z,73.50
2018-01-14T20:37:34.045Z,73.30
2018-01-14T20:40:02.330Z,73.40
2018-01-14T20:42:30.640Z,73.40
2018-01-14T20:44:59.687Z,73.50
2018-01-14T20:47:27.960Z,73.40
2018-01-14T20:49:56.768Z,73.60
2018-01-14T20:52:25.044Z,73.70
2018-01-14T20:54:53.302Z,73.60
2018-01-14T20:57:21.624Z,73.60
2018-01-14T20:59:49.915Z,73.50
2018-01-14T21:02:18.196Z,73.50
2018-01-14T21:04:46.452Z,73.60
2018-01-14T21:07:14.744Z,73.60
2018-01-14T21:09:42.998Z,73.50
2018-01-14T21:12:13.432Z,73.80
2018-01-14T21:14:41.934Z,73.60
2018-01-14T21:17:10.227Z,73.10
2018-01-14T21:19:38.521Z,73.40
2018-01-14T21:22:08.487Z,73.50
2018-01-14T21:24:36.749Z,73.30
2018-01-14T21:27:05.048Z,73.40
2018-01-14T21:29:33.459Z,73.40
2018-01-14T21:32:01.906Z,73.50
2018-01-14T21:34:30.254Z,73.50
2018-01-14T21:36:59.304Z,73.50
2018-01-14T21:39:27.567Z,73.50
2018-01-14T21:41:55.846Z,73.60
2018-01-14T21:44:24.146Z,73.60
2018-01-14T21:46:53.241Z,73.80
2018-01-14T21:49:21.541Z,73.70
2018-01-14T21:51:50.571Z,73.90
2018-01-14T21:54:19.666Z,74.10
2018-01-14T21:56:48.059Z,73.90
2018-01-14T21:59:16.355Z,74.00
2018-01-14T22:01:45.406Z,74.20
2018-01-14T22:04:13.682Z,74.10
2018-01-14T22:06:42.008Z,74.20
2018-01-14T22:09:11.106Z,74.30
2018-01-14T22:11:39.334Z,74.30
2018-01-14T22:14:07.695Z,74.10
2018-01-14T22:16:36.278Z,74.10
2018-01-14T22:19:04.550Z,74.20
2018-01-14T22:21:32.818Z,74.30
2018-01-14T22:24:01.922Z,74.40
2018-01-14T22:26:30.278Z,74.40
2018-01-14T22:28:58.555Z,74.40
2018-01-14T22:31:26.854Z,74.30
2018-01-14T22:33:55.100Z,74.30
2018-01-14T22:36:23.375Z,74.60
2018-01-14T22:38:51.666Z,74.60
2018-01-14T22:41:19.943Z,74.60
2018-01-14T22:43:48.187Z,74.50
2018-01-14T22:46:16.470Z,74.80
2018-01-14T22:48:44.713Z,74.80
2018-01-14T22:51:12.982Z,74.80
2018-01-14T22:53:41.291Z,74.80
2018-01-14T22:56:09.609Z,74.90
2018-01-14T22:58:37.874Z,74.80
2018-01-14T23:01:06.198Z,74.60
2018-01-14T23:03:34.444Z,74.60
2018-01-14T23:06:02.799Z,74.50
2018-01-14T23:08:31.031Z,74.50
2018-01-14T23:11:00.072Z,74.60
2018-01-14T23:13:28.329Z,74.60
2018-01-14T23:15:56.576Z,74.80
2018-01-14T23:18:25.645Z,75.70
2018-01-14T23:20:53.885Z,74.90
2018-01-14T23:23:22.150Z,74.90
2018-01-14T23:25:50.402Z,74.90
2018-01-14T23:28:18.662Z,75.00
2018-01-14T23:30:47.737Z,75.10
2018-01-14T23:33:17.137Z,75.00
2018-01-14T23:35:45.386Z,74.90
2018-01-14T23:38:13.640Z,75.00
2018-01-14T23:40:41.923Z,75.00
2018-01-14T23:43:10.185Z,75.90
2018-01-14T23:45:38.481Z,75.10
2018-01-14T23:48:06.796Z,74.90
2018-01-14T23:50:35.041Z,74.50
2018-01-14T23:53:03.302Z,74.50
2018-01-14T23:55:31.611Z,74.50
2018-01-14T23:57:59.855Z,74.30
